Terminal Aerodrome Forecast
Issued by NWS Omaha/Valley, NE

Home | Current Version | Previous Version | Text Only | Print | Product List | Glossary On
Versions: 1 2 3 4 5 6 7 8 9 10 11 12
000
FTUS43 KOAX 211120
TAFLNK
TAF
KLNK 211120Z 2112/2212 36018G30KT P6SM VCSH BKN050
     FM211500 35015G27KT P6SM BKN070
     FM211700 35015G25KT P6SM SCT200
     FM212300 35005KT P6SM SKC=

USA.gov is the U.S. government's official web portal to all federal, state and local government web resources and services.